Terminal Aerodrome Forecast
Issued by NWS

Home | Current Version | Previous Version | Text Only | Print | Product List | Glossary On
Versions: 1 2 3 4 5 6 7 8 9 10 11 12 13 14 15 16 17 18 19 20 21 22 23
000
FTUS42 KMLB 200500
TAFISM
TAF
KISM 200533Z 2006/2106 32008KT P6SM SCT012 OVC025
     FM200900 31008KT P6SM BKN008 OVC015
     FM201500 33012KT P6SM BKN028
     FM201900 35013KT P6SM BKN035
     FM210000 36009KT P6SM SCT035
      AMD NOT SKED TIL 201100=

USA.gov is the U.S. government's official web portal to all federal, state and local government web resources and services.